createdAt,value
2018-05-21T00:00:44.641Z,101976.23
2018-05-21T00:03:12.470Z,101976.73
2018-05-21T00:05:40.042Z,101976.13
2018-05-21T00:08:07.636Z,101976.70
2018-05-21T00:10:35.491Z,101979.94
2018-05-21T00:13:03.243Z,101980.83
2018-05-21T00:15:30.821Z,101976.80
2018-05-21T00:17:58.628Z,101971.87
2018-05-21T00:20:26.698Z,101975.17
2018-05-21T00:22:54.277Z,101973.99
2018-05-21T00:25:21.860Z,101974.11
2018-05-21T00:27:49.823Z,101976.50
2018-05-21T00:30:17.498Z,101969.27
2018-05-21T00:32:45.315Z,101972.72
2018-05-21T00:35:12.941Z,101969.45
2018-05-21T00:37:40.532Z,101962.52
2018-05-21T00:40:08.430Z,101961.94
2018-05-21T00:42:36.149Z,101955.91
2018-05-21T00:45:03.846Z,101952.75
2018-05-21T00:47:31.706Z,101950.72
2018-05-21T00:49:59.346Z,101948.31
2018-05-21T00:52:27.238Z,101949.56
2018-05-21T00:55:06.595Z,101953.63
2018-05-21T00:57:34.212Z,101940.89
2018-05-21T01:00:01.874Z,101949.81
2018-05-21T01:02:29.476Z,101946.55
2018-05-21T01:04:57.074Z,101944.57
2018-05-21T01:07:24.785Z,101949.53
2018-05-21T01:09:52.476Z,101944.19
2018-05-21T01:12:20.287Z,101942.09
2018-05-21T01:14:48.108Z,101949.34
2018-05-21T01:17:15.684Z,101950.67
2018-05-21T01:19:43.269Z,101945.17
2018-05-21T01:22:10.916Z,101954.17
2018-05-21T01:24:38.494Z,101951.62
2018-05-21T01:27:06.415Z,101955.84
2018-05-21T01:29:34.025Z,101955.33
2018-05-21T01:32:02.425Z,101955.70
2018-05-21T01:34:30.082Z,101949.47
2018-05-21T01:36:57.997Z,101957.81
2018-05-21T01:39:25.954Z,101952.36
2018-05-21T01:41:53.606Z,101957.84
2018-05-21T01:44:21.262Z,101955.89
2018-05-21T01:46:48.967Z,101950.73
2018-05-21T01:49:16.884Z,101961.00
2018-05-21T01:51:44.464Z,101955.75
2018-05-21T01:54:12.136Z,101960.03
2018-05-21T01:56:39.957Z,101951.47
2018-05-21T01:59:07.592Z,101962.55
2018-05-21T02:01:35.339Z,101960.72
2018-05-21T02:04:02.977Z,101961.03
2018-05-21T02:06:30.592Z,101956.51
2018-05-21T02:08:58.448Z,101953.16
2018-05-21T02:11:26.055Z,101953.58
2018-05-21T02:13:53.660Z,101955.00
2018-05-21T02:16:21.282Z,101955.37
2018-05-21T02:18:49.165Z,101954.58
2018-05-21T02:21:16.899Z,101953.09
2018-05-21T02:23:44.497Z,101946.75
2018-05-21T02:26:12.318Z,101957.59
2018-05-21T02:28:40.002Z,101951.92
2018-05-21T02:31:07.572Z,101951.36
2018-05-21T02:33:35.571Z,101952.34
2018-05-21T02:36:03.162Z,101941.31
2018-05-21T02:38:31.095Z,101949.23
2018-05-21T02:40:58.811Z,101944.66
2018-05-21T02:43:26.466Z,101938.36
2018-05-21T02:45:54.292Z,101938.78
2018-05-21T02:48:21.936Z,101937.58
2018-05-21T02:50:49.794Z,101927.44
2018-05-21T02:53:17.387Z,101932.38
2018-05-21T02:55:45.057Z,101929.70
2018-05-21T02:58:12.895Z,101927.17
2018-05-21T03:00:41.222Z,101922.07
2018-05-21T03:03:08.816Z,101920.02
2018-05-21T03:05:37.031Z,101917.75
2018-05-21T03:08:05.333Z,101915.08
2018-05-21T03:10:33.490Z,101916.38
2018-05-21T03:13:01.483Z,101910.83
2018-05-21T03:15:29.851Z,101913.61
2018-05-21T03:17:58.027Z,101915.74
2018-05-21T03:20:25.915Z,101917.64
2018-05-21T03:26:03.086Z,101914.69
2018-05-21T03:28:30.698Z,101913.67
2018-05-21T03:30:58.287Z,101912.70
2018-05-21T03:33:25.978Z,101915.88
2018-05-21T03:35:53.867Z,101913.20
2018-05-21T03:38:21.683Z,101917.38
2018-05-21T03:40:49.618Z,101918.52
2018-05-21T03:43:17.272Z,101909.75
2018-05-21T03:45:45.374Z,101914.40
2018-05-21T03:48:13.248Z,101913.19
2018-05-21T03:50:41.067Z,101906.16
2018-05-21T03:53:08.828Z,101909.13
2018-05-21T03:55:36.544Z,101908.45
2018-05-21T03:58:04.140Z,101909.02
2018-05-21T04:00:43.932Z,101908.71
2018-05-21T04:03:23.295Z,101907.34
2018-05-21T04:05:51.253Z,101910.08
2018-05-21T04:08:18.843Z,101909.97
2018-05-21T04:10:46.565Z,101907.24
2018-05-21T04:13:14.180Z,101901.64
2018-05-21T04:15:42.216Z,101910.80
2018-05-21T04:18:09.988Z,101907.70
2018-05-21T04:20:37.580Z,101908.91
2018-05-21T04:23:05.163Z,101903.16
2018-05-21T04:25:32.839Z,101910.53
2018-05-21T04:28:00.578Z,101912.69
2018-05-21T04:30:28.294Z,101908.97
2018-05-21T04:32:55.858Z,101910.94
2018-05-21T04:35:23.453Z,101906.66
2018-05-21T04:37:51.091Z,101900.63
2018-05-21T04:40:18.691Z,101904.67
2018-05-21T04:42:46.346Z,101902.28
2018-05-21T04:45:14.031Z,101891.14
2018-05-21T04:47:41.753Z,101899.42
2018-05-21T04:50:09.354Z,101897.37
2018-05-21T04:52:36.937Z,101901.90
2018-05-21T04:55:04.671Z,101902.22
2018-05-21T04:57:32.282Z,101896.16
2018-05-21T04:59:59.936Z,101897.56
2018-05-21T05:02:27.536Z,101895.69
2018-05-21T05:04:55.577Z,101893.50
2018-05-21T05:07:23.145Z,101897.44
2018-05-21T05:09:50.724Z,101893.20
2018-05-21T05:12:18.758Z,101892.02
2018-05-21T05:14:46.388Z,101893.27
2018-05-21T05:17:13.967Z,101896.73
2018-05-21T05:19:41.592Z,101886.70
2018-05-21T05:22:09.193Z,101880.30
2018-05-21T05:24:36.774Z,101885.13
2018-05-21T05:27:04.936Z,101887.43
2018-05-21T05:29:32.553Z,101889.16
2018-05-21T05:32:00.805Z,101888.14
2018-05-21T05:34:28.414Z,101888.70
2018-05-21T05:36:56.009Z,101889.92
2018-05-21T05:39:23.601Z,101885.36
2018-05-21T05:41:51.168Z,101890.42
2018-05-21T05:44:18.772Z,101893.06
2018-05-21T05:46:46.404Z,101893.28
2018-05-21T05:49:14.285Z,101882.94
2018-05-21T05:51:42.243Z,101882.61
2018-05-21T05:54:10.460Z,101877.25
2018-05-21T05:56:38.037Z,101876.30
2018-05-21T05:59:05.694Z,101875.14
2018-05-21T06:01:33.462Z,101872.71
2018-05-21T06:04:01.059Z,101874.82
2018-05-21T06:06:28.825Z,101872.09
2018-05-21T06:08:56.434Z,101871.80
2018-05-21T06:11:24.108Z,101869.00
2018-05-21T06:13:51.779Z,101871.51
2018-05-21T06:16:19.424Z,101868.20
2018-05-21T06:18:47.068Z,101866.58
2018-05-21T06:21:14.666Z,101865.39
2018-05-21T06:23:42.239Z,101873.83
2018-05-21T06:26:10.227Z,101863.28
2018-05-21T06:28:37.819Z,101866.73
2018-05-21T06:31:05.498Z,101864.83
2018-05-21T06:33:33.070Z,101872.37
2018-05-21T06:36:01.031Z,101860.46
2018-05-21T06:38:28.610Z,101854.13
2018-05-21T06:40:56.681Z,101856.34
2018-05-21T06:43:24.292Z,101863.49
2018-05-21T06:45:51.897Z,101853.18
2018-05-21T06:48:19.464Z,101852.97
2018-05-21T06:50:47.178Z,101843.89
2018-05-21T06:53:14.748Z,101851.27
2018-05-21T06:55:42.377Z,101848.45
2018-05-21T06:58:10.026Z,101844.70
2018-05-21T07:00:37.608Z,101835.21
2018-05-21T07:03:05.169Z,101840.23
2018-05-21T07:05:32.910Z,101834.56
2018-05-21T07:08:01.075Z,101836.31
2018-05-21T07:10:28.852Z,101833.48
2018-05-21T07:12:56.440Z,101836.91
2018-05-21T07:15:24.019Z,101836.96
2018-05-21T07:17:51.619Z,101834.86
2018-05-21T07:20:19.171Z,101833.25
2018-05-21T07:22:47.033Z,101832.03
2018-05-21T07:25:14.600Z,101831.16
2018-05-21T07:27:42.166Z,101824.59
2018-05-21T07:30:10.049Z,101825.94
2018-05-21T07:32:37.628Z,101820.11
2018-05-21T07:35:05.222Z,101827.02
2018-05-21T07:37:33.141Z,101817.05
2018-05-21T07:40:00.710Z,101814.22
2018-05-21T07:42:28.286Z,101814.64
2018-05-21T07:44:55.887Z,101816.69
2018-05-21T07:47:23.465Z,101814.81
2018-05-21T07:49:51.072Z,101817.44
2018-05-21T07:52:18.712Z,101812.10
2018-05-21T07:54:46.415Z,101812.55
2018-05-21T07:57:14.017Z,101814.83
2018-05-21T07:59:41.582Z,101811.69
2018-05-21T08:02:09.160Z,101809.12
2018-05-21T08:04:36.726Z,101803.02
2018-05-21T08:07:04.312Z,101799.71
2018-05-21T08:09:31.920Z,101799.27
2018-05-21T08:11:59.483Z,101804.77
2018-05-21T08:14:27.055Z,101785.87
2018-05-21T08:16:55.110Z,101787.86
2018-05-21T08:19:22.676Z,101788.79
2018-05-21T08:21:50.251Z,101791.61
2018-05-21T08:24:17.867Z,101785.39
2018-05-21T08:26:45.443Z,101780.19
2018-05-21T08:29:13.075Z,101792.34
2018-05-21T08:31:40.740Z,101782.06
2018-05-21T08:34:09.289Z,101774.23
2018-05-21T08:36:37.162Z,101776.20
2018-05-21T08:39:07.716Z,101776.93
2018-05-21T08:41:35.300Z,101776.19
2018-05-21T08:44:02.869Z,101768.66
2018-05-21T08:46:30.466Z,101770.68
2018-05-21T08:48:58.140Z,101769.33
2018-05-21T08:51:25.834Z,101763.89
2018-05-21T08:53:53.395Z,101757.80
2018-05-21T08:56:21.359Z,101765.11
2018-05-21T08:58:50.229Z,101762.80
2018-05-21T09:01:17.801Z,101760.47
2018-05-21T09:03:45.420Z,101756.70
2018-05-21T09:06:13.010Z,101747.47
2018-05-21T09:08:40.583Z,101745.64
2018-05-21T09:11:08.222Z,101740.89
2018-05-21T09:13:35.914Z,101734.02
2018-05-21T09:16:03.537Z,101735.45
2018-05-21T09:18:31.091Z,101729.72
2018-05-21T09:20:58.704Z,101730.72
2018-05-21T09:23:26.384Z,101724.91
2018-05-21T09:25:53.962Z,101725.66
2018-05-21T09:28:21.523Z,101722.52
2018-05-21T09:30:49.521Z,101730.38
2018-05-21T09:33:17.087Z,101733.75
2018-05-21T09:35:44.746Z,101721.09
2018-05-21T09:38:12.683Z,101724.37
2018-05-21T09:40:40.771Z,101722.66
2018-05-21T09:43:08.654Z,101718.78
2018-05-21T09:45:36.253Z,101710.37
2018-05-21T09:48:03.841Z,101708.21
2018-05-21T09:50:31.437Z,101714.81
2018-05-21T09:52:59.024Z,101708.88
2018-05-21T09:55:26.618Z,101707.51
2018-05-21T09:57:54.229Z,101703.75
2018-05-21T10:00:24.594Z,101706.18
2018-05-21T10:02:52.392Z,101704.63
2018-05-21T10:05:20.015Z,101691.95
2018-05-21T10:07:47.875Z,101687.96
2018-05-21T10:10:15.432Z,101684.91
2018-05-21T10:12:43.015Z,101685.21
2018-05-21T10:15:10.603Z,101677.47
2018-05-21T10:17:38.186Z,101675.78
2018-05-21T10:20:05.796Z,101679.94
2018-05-21T10:22:33.672Z,101676.65
2018-05-21T10:25:01.264Z,101674.15
2018-05-21T10:27:28.828Z,101667.51
2018-05-21T10:29:56.428Z,101678.57
2018-05-21T10:32:24.009Z,101675.64
2018-05-21T10:34:51.569Z,101660.98
2018-05-21T10:37:19.319Z,101658.45
2018-05-21T10:39:46.861Z,101664.04
2018-05-21T10:42:14.424Z,101651.52
2018-05-21T10:44:42.071Z,101647.92
2018-05-21T10:47:09.629Z,101644.95
2018-05-21T10:49:37.349Z,101632.41
2018-05-21T10:52:05.384Z,101636.59
2018-05-21T10:54:32.986Z,101634.20
2018-05-21T10:57:00.986Z,101629.81
2018-05-21T10:59:28.563Z,101636.98
2018-05-21T11:01:56.134Z,101632.00
2018-05-21T11:04:23.950Z,101622.05
2018-05-21T11:06:51.529Z,101610.88
2018-05-21T11:09:19.079Z,101615.03
2018-05-21T11:11:46.975Z,101609.52
2018-05-21T11:14:14.779Z,101604.29
2018-05-21T11:16:42.486Z,101595.06
2018-05-21T11:19:10.144Z,101590.11
2018-05-21T11:21:37.727Z,101593.81
2018-05-21T11:24:05.702Z,101582.02
2018-05-21T11:26:33.345Z,101585.16
2018-05-21T11:29:00.916Z,101578.39
2018-05-21T11:31:28.740Z,101576.48
2018-05-21T11:33:56.347Z,101574.27
2018-05-21T11:36:24.314Z,101578.87
2018-05-21T11:38:52.190Z,101575.04
2018-05-21T11:41:19.844Z,101574.83
2018-05-21T11:43:47.450Z,101567.38
2018-05-21T11:46:15.092Z,101561.87
2018-05-21T11:48:42.659Z,101555.04
2018-05-21T11:51:10.266Z,101557.03
2018-05-21T11:53:37.832Z,101550.55
2018-05-21T11:56:05.476Z,101543.84
2018-05-21T11:58:33.066Z,101534.92
2018-05-21T12:01:00.722Z,101541.63
2018-05-21T12:03:28.559Z,101537.62
2018-05-21T12:05:56.157Z,101536.60
2018-05-21T12:08:23.777Z,101537.22
2018-05-21T12:10:51.365Z,101536.23
2018-05-21T12:13:18.985Z,101539.56
2018-05-21T12:15:46.658Z,101533.69
2018-05-21T12:18:14.253Z,101527.41
2018-05-21T12:20:41.842Z,101532.23
2018-05-21T12:23:09.464Z,101514.78
2018-05-21T12:25:37.239Z,101515.55
2018-05-21T12:28:05.048Z,101517.77
2018-05-21T12:30:32.605Z,101519.35
2018-05-21T12:33:00.190Z,101517.89
2018-05-21T12:35:27.773Z,101519.70
2018-05-21T12:37:55.353Z,101515.03
2018-05-21T12:40:22.927Z,101510.78
2018-05-21T12:42:50.507Z,101504.56
2018-05-21T12:45:18.076Z,101504.95
2018-05-21T12:47:45.663Z,101504.55
2018-05-21T12:50:13.215Z,101505.97
2018-05-21T12:52:40.803Z,101497.66
2018-05-21T12:55:08.621Z,101510.78
2018-05-21T12:57:36.491Z,101496.08
2018-05-21T13:00:04.374Z,101492.80
2018-05-21T13:02:31.944Z,101498.34
2018-05-21T13:04:59.746Z,101496.25
2018-05-21T13:07:27.324Z,101497.59
2018-05-21T13:09:54.881Z,101485.23
2018-05-21T13:12:22.464Z,101483.23
2018-05-21T13:14:50.027Z,101486.50
2018-05-21T13:17:18.013Z,101490.55
2018-05-21T13:19:45.883Z,101487.72
2018-05-21T13:22:14.598Z,101482.68
2018-05-21T13:24:42.426Z,101464.50
2018-05-21T13:27:10.072Z,101477.67
2018-05-21T13:29:37.655Z,101465.51
2018-05-21T13:32:05.856Z,101461.91
2018-05-21T13:34:33.443Z,101450.87
2018-05-21T13:37:01.001Z,101453.69
2018-05-21T13:39:28.591Z,101452.65
2018-05-21T13:41:56.382Z,101456.67
2018-05-21T13:44:24.024Z,101443.91
2018-05-21T13:46:51.585Z,101439.82
2018-05-21T13:49:19.165Z,101440.40
2018-05-21T13:51:46.752Z,101428.56
2018-05-21T13:54:14.312Z,101429.23
2018-05-21T13:56:41.956Z,101420.78
2018-05-21T13:59:09.525Z,101429.91
2018-05-21T14:01:37.144Z,101419.76
2018-05-21T14:04:04.936Z,101416.34
2018-05-21T14:06:32.494Z,101419.48
2018-05-21T14:09:00.159Z,101411.92
2018-05-21T14:11:28.004Z,101416.73
2018-05-21T14:13:55.572Z,101411.83
2018-05-21T14:16:23.381Z,101401.17
2018-05-21T14:18:50.945Z,101398.89
2018-05-21T14:21:18.566Z,101390.34
2018-05-21T14:23:46.122Z,101396.11
2018-05-21T14:26:13.691Z,101396.70
2018-05-21T14:28:41.310Z,101393.55
2018-05-21T14:31:08.875Z,101392.55
2018-05-21T14:33:36.547Z,101391.16
2018-05-21T14:36:04.086Z,101389.64
2018-05-21T14:38:31.667Z,101385.11
2018-05-21T14:40:59.616Z,101372.95
2018-05-21T14:43:27.196Z,101363.85
2018-05-21T14:45:55.301Z,101367.41
2018-05-21T14:48:23.271Z,101362.44
2018-05-21T14:50:50.802Z,101361.28
2018-05-21T14:53:18.449Z,101364.36
2018-05-21T14:55:46.569Z,101364.39
2018-05-21T14:58:14.371Z,101354.73
2018-05-21T15:00:42.229Z,101345.02
2018-05-21T15:03:10.157Z,101345.50
2018-05-21T15:05:37.720Z,101338.28
2018-05-21T15:08:05.284Z,101347.77
2018-05-21T15:10:32.858Z,101352.37
2018-05-21T15:13:00.428Z,101342.71
2018-05-21T15:15:28.015Z,101341.39
2018-05-21T15:17:55.696Z,101339.05
2018-05-21T15:20:23.619Z,101334.66
2018-05-21T15:22:51.160Z,101330.56
2018-05-21T15:25:18.739Z,101337.11
2018-05-21T15:27:46.416Z,101319.56
2018-05-21T15:30:13.969Z,101326.48
2018-05-21T15:32:41.559Z,101322.33
2018-05-21T15:35:09.304Z,101318.78
2018-05-21T15:37:37.759Z,101316.68
2018-05-21T15:40:05.321Z,101318.95
2018-05-21T15:42:32.889Z,101317.27
2018-05-21T15:45:00.470Z,101317.91
2018-05-21T15:47:28.456Z,101309.83
2018-05-21T15:49:56.421Z,101301.69
2018-05-21T15:52:24.004Z,101306.50
2018-05-21T15:54:51.564Z,101299.96
2018-05-21T15:57:19.149Z,101304.09
2018-05-21T15:59:46.801Z,101309.01
2018-05-21T16:02:14.651Z,101304.44
2018-05-21T16:04:42.214Z,101298.50
2018-05-21T16:07:09.913Z,101296.64
2018-05-21T16:09:37.560Z,101287.98
2018-05-21T16:12:05.376Z,101293.23
2018-05-21T16:14:32.982Z,101283.43
2018-05-21T16:17:00.576Z,101278.34
2018-05-21T16:19:28.149Z,101291.34
2018-05-21T16:21:55.728Z,101287.42
2018-05-21T16:24:23.284Z,101284.64
2018-05-21T16:26:51.062Z,101285.16
2018-05-21T16:29:19.732Z,101284.68
2018-05-21T16:31:47.371Z,101273.83
2018-05-21T16:34:15.189Z,101277.77
2018-05-21T16:36:42.776Z,101272.92
2018-05-21T16:39:10.336Z,101282.73
2018-05-21T16:41:38.296Z,101279.92
2018-05-21T16:44:05.896Z,101277.08
2018-05-21T16:46:33.784Z,101276.80
2018-05-21T16:49:01.378Z,101271.05
2018-05-21T16:51:29.083Z,101271.61
2018-05-21T16:53:57.194Z,101275.41
2018-05-21T16:56:24.971Z,101274.79
2018-05-21T16:58:52.566Z,101268.53
2018-05-21T17:01:20.161Z,101274.03
2018-05-21T17:03:48.334Z,101273.13
2018-05-21T17:06:16.337Z,101270.98
2018-05-21T17:08:43.942Z,101265.41
2018-05-21T17:11:11.764Z,101261.25
2018-05-21T17:13:39.387Z,101263.91
2018-05-21T17:16:07.096Z,101264.57
2018-05-21T17:18:35.125Z,101262.52
2018-05-21T17:21:02.777Z,101268.40
2018-05-21T17:23:31.768Z,101262.47
2018-05-21T17:25:59.456Z,101261.13
2018-05-21T17:28:27.202Z,101264.52
2018-05-21T17:30:54.871Z,101263.54
2018-05-21T17:33:22.875Z,101257.19
2018-05-21T17:35:50.562Z,101267.44
2018-05-21T17:38:18.204Z,101259.78
2018-05-21T17:40:45.770Z,101268.97
2018-05-21T17:43:13.353Z,101264.64
2018-05-21T17:45:41.535Z,101258.11
2018-05-21T17:48:09.211Z,101250.97
2018-05-21T17:50:36.789Z,101254.98
2018-05-21T17:53:04.395Z,101249.44
2018-05-21T17:55:32.018Z,101255.04
2018-05-21T17:57:59.863Z,101259.42
2018-05-21T18:00:27.576Z,101255.09
2018-05-21T18:02:55.163Z,101255.33
2018-05-21T18:05:22.867Z,101248.78
2018-05-21T18:07:50.464Z,101256.73
2018-05-21T18:10:18.101Z,101253.55
2018-05-21T18:12:45.828Z,101254.56
2018-05-21T18:15:13.396Z,101251.19
2018-05-21T18:17:40.982Z,101255.36
2018-05-21T18:20:09.011Z,101251.81
2018-05-21T18:22:36.895Z,101257.34
2018-05-21T18:25:04.468Z,101255.16
2018-05-21T18:27:32.096Z,101252.75
2018-05-21T18:29:59.747Z,101249.40
2018-05-21T18:32:27.336Z,101249.19
2018-05-21T18:34:55.180Z,101248.56
2018-05-21T18:37:22.920Z,101240.45
2018-05-21T18:39:50.964Z,101244.80
2018-05-21T18:42:18.603Z,101242.17
2018-05-21T18:44:46.162Z,101246.52
2018-05-21T18:47:14.005Z,101249.05
2018-05-21T18:49:42.002Z,101243.09
2018-05-21T18:52:09.860Z,101247.78
2018-05-21T18:54:37.472Z,101250.94
2018-05-21T18:57:05.213Z,101242.40
2018-05-21T18:59:32.790Z,101247.73
2018-05-21T19:02:00.355Z,101239.99
2018-05-21T19:04:28.001Z,101243.14
2018-05-21T19:06:56.013Z,101249.02
2018-05-21T19:09:23.596Z,101246.54
2018-05-21T19:11:51.401Z,101245.12
2018-05-21T19:14:19.093Z,101249.87
2018-05-21T19:16:46.774Z,101246.09
2018-05-21T19:19:14.758Z,101250.80
2018-05-21T19:21:42.432Z,101249.73
2018-05-21T19:24:10.042Z,101248.11
2018-05-21T19:26:37.604Z,101251.81
2018-05-21T19:29:05.501Z,101255.06
2018-05-21T19:31:33.110Z,101254.73
2018-05-21T19:34:00.687Z,101253.70
2018-05-21T19:36:28.364Z,101257.44
2018-05-21T19:38:56.390Z,101260.95
2018-05-21T19:41:24.107Z,101265.09
2018-05-21T19:43:51.689Z,101260.74
2018-05-21T19:46:19.496Z,101268.16
2018-05-21T19:48:47.136Z,101266.26
2018-05-21T19:51:15.216Z,101268.63
2018-05-21T19:53:42.811Z,101265.45
2018-05-21T19:56:10.450Z,101268.16
2018-05-21T19:58:38.344Z,101265.61
2018-05-21T20:01:05.932Z,101265.77
2018-05-21T20:03:33.613Z,101271.19
2018-05-21T20:06:01.214Z,101271.09
2018-05-21T20:08:29.158Z,101268.59
2018-05-21T20:10:56.738Z,101262.75
2018-05-21T20:13:24.380Z,101269.59
2018-05-21T20:15:51.966Z,101267.13
2018-05-21T20:18:31.405Z,101268.80
2018-05-21T20:20:59.013Z,101267.08
2018-05-21T20:23:26.955Z,101271.70
2018-05-21T20:25:54.574Z,101268.77
2018-05-21T20:28:22.139Z,101271.46
2018-05-21T20:30:49.839Z,101264.06
2018-05-21T20:33:17.426Z,101268.70
2018-05-21T20:35:45.013Z,101262.67
2018-05-21T20:38:12.603Z,101263.55
2018-05-21T20:40:40.382Z,101264.20
2018-05-21T20:43:08.080Z,101261.27
2018-05-21T20:45:35.929Z,101258.19
2018-05-21T20:48:03.615Z,101262.00
2018-05-21T20:50:31.204Z,101259.06
2018-05-21T20:52:58.780Z,101258.99
2018-05-21T20:55:27.185Z,101265.25
2018-05-21T20:57:54.822Z,101262.61
2018-05-21T21:00:22.423Z,101265.10
2018-05-21T21:02:49.996Z,101261.08
2018-05-21T21:05:17.711Z,101258.80
2018-05-21T21:07:45.315Z,101261.22
2018-05-21T21:10:12.909Z,101254.80
2018-05-21T21:12:40.486Z,101256.63
2018-05-21T21:15:08.104Z,101250.91
2018-05-21T21:17:35.754Z,101257.26
2018-05-21T21:20:03.350Z,101253.78
2018-05-21T21:22:31.009Z,101243.41
2018-05-21T21:24:58.588Z,101245.27
2018-05-21T21:27:26.166Z,101248.27
2018-05-21T21:29:53.792Z,101246.35
2018-05-21T21:32:21.472Z,101248.70
2018-05-21T21:34:48.994Z,101247.52
2018-05-21T21:37:17.805Z,101248.61
2018-05-21T21:39:45.786Z,101242.79
2018-05-21T21:42:13.592Z,101248.44
2018-05-21T21:44:41.391Z,101240.86
2018-05-21T21:47:08.927Z,101245.86
2018-05-21T21:49:36.634Z,101240.77
2018-05-21T21:52:04.355Z,101243.97
2018-05-21T21:54:32.231Z,101243.27
2018-05-21T21:57:00.065Z,101228.88
2018-05-21T21:59:27.755Z,101230.80
2018-05-21T22:01:55.336Z,101229.41
2018-05-21T22:04:22.935Z,101224.59
2018-05-21T22:06:50.558Z,101224.86
2018-05-21T22:09:18.511Z,101226.63
2018-05-21T22:11:47.300Z,101221.80
2018-05-21T22:14:14.880Z,101221.33
2018-05-21T22:16:42.748Z,101226.91
2018-05-21T22:19:10.996Z,101224.42
2018-05-21T22:21:38.636Z,101223.61
2018-05-21T22:24:06.201Z,101223.39
2018-05-21T22:26:33.787Z,101224.42
2018-05-21T22:29:01.388Z,101224.31
2018-05-21T22:31:28.990Z,101225.16
2018-05-21T22:33:56.724Z,101215.08
2018-05-21T22:36:24.436Z,101211.50
2018-05-21T22:38:52.003Z,101216.98
2018-05-21T22:41:19.589Z,101218.41
2018-05-21T22:43:47.615Z,101213.36
2018-05-21T22:46:15.270Z,101207.75
2018-05-21T22:48:42.839Z,101206.44
2018-05-21T22:51:10.690Z,101208.30
2018-05-21T22:53:38.816Z,101205.80
2018-05-21T22:56:06.437Z,101202.95
2018-05-21T22:58:34.236Z,101205.03
2018-05-21T23:01:01.873Z,101199.66
2018-05-21T23:03:29.453Z,101195.41
2018-05-21T23:05:57.033Z,101198.58
2018-05-21T23:08:24.728Z,101202.75
2018-05-21T23:10:52.659Z,101203.37
2018-05-21T23:13:20.485Z,101199.55
2018-05-21T23:15:48.299Z,101201.93
2018-05-21T23:18:16.116Z,101199.48
2018-05-21T23:20:43.728Z,101196.25
2018-05-21T23:23:11.388Z,101199.05
2018-05-21T23:25:38.973Z,101196.20
2018-05-21T23:28:06.549Z,101195.17
2018-05-21T23:30:34.310Z,101196.20
2018-05-21T23:33:01.894Z,101183.45
2018-05-21T23:35:29.481Z,101191.74
2018-05-21T23:37:57.434Z,101190.89
2018-05-21T23:40:25.041Z,101197.14
2018-05-21T23:42:52.621Z,101188.03
2018-05-21T23:45:20.224Z,101189.32
2018-05-21T23:47:47.790Z,101195.54
2018-05-21T23:50:15.437Z,101190.64
2018-05-21T23:52:43.029Z,101187.05
2018-05-21T23:55:10.657Z,101190.69
2018-05-21T23:57:38.685Z,101190.75
